sensor_id;sensor_type;location;lat;lon;timestamp;pressure;altitude;pressure_sealevel;temperature;humidity
65384;BME280;51986;52.788;41.368;2023-05-19T00:01:42;99591.22;;;17.03;39.35
65384;BME280;51986;52.788;41.368;2023-05-19T00:04:10;99599.84;;;16.94;39.77
65384;BME280;51986;52.788;41.368;2023-05-19T00:06:37;99591.03;;;16.97;39.70
65384;BME280;51986;52.788;41.368;2023-05-19T00:09:08;99582.81;;;16.91;39.96
65384;BME280;51986;52.788;41.368;2023-05-19T00:11:37;99560.97;;;16.84;38.48
65384;BME280;51986;52.788;41.368;2023-05-19T00:14:07;99581.75;;;17.02;37.55
65384;BME280;51986;52.788;41.368;2023-05-19T00:16:35;99576.41;;;17.02;37.83
65384;BME280;51986;52.788;41.368;2023-05-19T00:19:04;99579.81;;;17.02;37.58
65384;BME280;51986;52.788;41.368;2023-05-19T00:21:31;99582.72;;;16.95;37.30
65384;BME280;51986;52.788;41.368;2023-05-19T00:23:58;99587.72;;;16.93;37.90
65384;BME280;51986;52.788;41.368;2023-05-19T00:26:26;99586.34;;;16.88;38.15
65384;BME280;51986;52.788;41.368;2023-05-19T00:28:58;99587.41;;;16.78;38.07
65384;BME280;51986;52.788;41.368;2023-05-19T00:31:25;99600.06;;;16.74;38.39
65384;BME280;51986;52.788;41.368;2023-05-19T00:33:53;99589.13;;;16.72;38.96
65384;BME280;51986;52.788;41.368;2023-05-19T00:36:20;99604.00;;;16.69;38.23
65384;BME280;51986;52.788;41.368;2023-05-19T00:38:48;99591.97;;;16.78;37.94
65384;BME280;51986;52.788;41.368;2023-05-19T00:41:15;99589.84;;;16.73;37.43
65384;BME280;51986;52.788;41.368;2023-05-19T00:43:42;99600.72;;;16.65;38.16
65384;BME280;51986;52.788;41.368;2023-05-19T00:46:09;99583.78;;;16.59;38.51
65384;BME280;51986;52.788;41.368;2023-05-19T00:48:36;99615.53;;;16.66;38.21
65384;BME280;51986;52.788;41.368;2023-05-19T00:51:04;99603.91;;;16.60;38.22
65384;BME280;51986;52.788;41.368;2023-05-19T00:53:32;99600.25;;;16.41;38.58
65384;BME280;51986;52.788;41.368;2023-05-19T00:56:00;99611.66;;;16.42;38.58
65384;BME280;51986;52.788;41.368;2023-05-19T00:58:30;99600.25;;;16.41;38.52
65384;BME280;51986;52.788;41.368;2023-05-19T01:00:58;99596.97;;;16.37;38.22
65384;BME280;51986;52.788;41.368;2023-05-19T01:03:25;99601.13;;;16.51;38.27
65384;BME280;51986;52.788;41.368;2023-05-19T01:05:53;99602.81;;;16.45;38.00
65384;BME280;51986;52.788;41.368;2023-05-19T01:08:20;99606.22;;;16.45;38.82
65384;BME280;51986;52.788;41.368;2023-05-19T01:10:47;99609.75;;;16.42;39.63
65384;BME280;51986;52.788;41.368;2023-05-19T01:13:15;99616.84;;;16.33;38.79
65384;BME280;51986;52.788;41.368;2023-05-19T01:18:55;99612.41;;;16.42;38.82
65384;BME280;51986;52.788;41.368;2023-05-19T01:24:52;99632.22;;;16.54;37.69
65384;BME280;51986;52.788;41.368;2023-05-19T01:30:39;99597.81;;;16.47;37.74
65384;BME280;51986;52.788;41.368;2023-05-19T01:33:13;99605.47;;;16.32;37.84
65384;BME280;51986;52.788;41.368;2023-05-19T01:35:42;99621.13;;;16.43;37.62
65384;BME280;51986;52.788;41.368;2023-05-19T01:38:10;99617.34;;;16.57;37.51
65384;BME280;51986;52.788;41.368;2023-05-19T01:40:40;99613.41;;;16.61;37.67
65384;BME280;51986;52.788;41.368;2023-05-19T01:43:12;99617.97;;;16.61;37.88
65384;BME280;51986;52.788;41.368;2023-05-19T01:45:39;99611.56;;;16.58;37.49
65384;BME280;51986;52.788;41.368;2023-05-19T01:48:07;99612.22;;;16.62;37.31
65384;BME280;51986;52.788;41.368;2023-05-19T01:50:38;99628.00;;;16.69;37.63
65384;BME280;51986;52.788;41.368;2023-05-19T01:53:05;99597.09;;;16.59;37.20
65384;BME280;51986;52.788;41.368;2023-05-19T01:55:35;99598.91;;;16.75;37.38
65384;BME280;51986;52.788;41.368;2023-05-19T01:58:33;99613.41;;;17.00;37.27
65384;BME280;51986;52.788;41.368;2023-05-19T02:04:16;99613.28;;;17.03;37.39
65384;BME280;51986;52.788;41.368;2023-05-19T02:06:51;99627.16;;;17.11;37.24
65384;BME280;51986;52.788;41.368;2023-05-19T02:09:25;99609.47;;;17.04;37.80
65384;BME280;51986;52.788;41.368;2023-05-19T02:12:21;99603.47;;;17.13;36.89
65384;BME280;51986;52.788;41.368;2023-05-19T02:15:03;99632.38;;;17.14;36.91
65384;BME280;51986;52.788;41.368;2023-05-19T02:17:35;99623.34;;;17.25;37.29
65384;BME280;51986;52.788;41.368;2023-05-19T02:20:04;99606.78;;;17.17;37.65
65384;BME280;51986;52.788;41.368;2023-05-19T02:22:32;99606.28;;;17.09;38.21
65384;BME280;51986;52.788;41.368;2023-05-19T02:24:59;99629.50;;;17.21;38.05
65384;BME280;51986;52.788;41.368;2023-05-19T02:27:26;99629.06;;;17.10;38.39
65384;BME280;51986;52.788;41.368;2023-05-19T02:29:53;99635.50;;;17.26;38.23
65384;BME280;51986;52.788;41.368;2023-05-19T02:32:20;99634.50;;;17.32;37.80
65384;BME280;51986;52.788;41.368;2023-05-19T02:34:47;99612.88;;;17.30;37.87
65384;BME280;51986;52.788;41.368;2023-05-19T02:37:15;99628.72;;;17.46;36.01
65384;BME280;51986;52.788;41.368;2023-05-19T02:39:42;99644.50;;;17.54;36.70
65384;BME280;51986;52.788;41.368;2023-05-19T02:42:09;99652.41;;;17.57;35.78
65384;BME280;51986;52.788;41.368;2023-05-19T02:44:37;99629.50;;;17.82;34.12
65384;BME280;51986;52.788;41.368;2023-05-19T02:47:03;99600.78;;;17.86;33.93
65384;BME280;51986;52.788;41.368;2023-05-19T02:49:31;99618.38;;;18.18;33.49
65384;BME280;51986;52.788;41.368;2023-05-19T02:51:59;99597.22;;;18.55;33.39
65384;BME280;51986;52.788;41.368;2023-05-19T02:54:26;99622.38;;;20.02;30.42
65384;BME280;51986;52.788;41.368;2023-05-19T02:56:53;99606.34;;;21.20;28.74
65384;BME280;51986;52.788;41.368;2023-05-19T02:59:20;99610.69;;;22.34;26.16
65384;BME280;51986;52.788;41.368;2023-05-19T03:01:48;99613.47;;;23.45;24.80
65384;BME280;51986;52.788;41.368;2023-05-19T03:04:15;99585.66;;;24.26;23.71
65384;BME280;51986;52.788;41.368;2023-05-19T03:06:42;99611.72;;;25.09;22.96
65384;BME280;51986;52.788;41.368;2023-05-19T03:09:09;99609.38;;;25.45;22.49
65384;BME280;51986;52.788;41.368;2023-05-19T03:11:36;99613.47;;;26.11;21.77
65384;BME280;51986;52.788;41.368;2023-05-19T03:14:03;99596.72;;;26.74;20.94
65384;BME280;51986;52.788;41.368;2023-05-19T03:16:30;99609.97;;;26.95;20.92
65384;BME280;51986;52.788;41.368;2023-05-19T03:18:57;99607.16;;;27.75;20.66
65384;BME280;51986;52.788;41.368;2023-05-19T03:21:24;99613.66;;;28.32;20.06
65384;BME280;51986;52.788;41.368;2023-05-19T03:23:51;99604.06;;;28.56;20.21
65384;BME280;51986;52.788;41.368;2023-05-19T03:26:19;99592.59;;;28.93;19.50
65384;BME280;51986;52.788;41.368;2023-05-19T03:28:46;99577.06;;;29.69;18.55
65384;BME280;51986;52.788;41.368;2023-05-19T03:31:13;99559.91;;;30.06;18.79
65384;BME280;51986;52.788;41.368;2023-05-19T03:33:40;99601.63;;;29.96;18.62
65384;BME280;51986;52.788;41.368;2023-05-19T03:36:07;99592.75;;;30.67;18.56
65384;BME280;51986;52.788;41.368;2023-05-19T03:38:37;99560.47;;;31.11;17.94
65384;BME280;51986;52.788;41.368;2023-05-19T03:41:04;99583.50;;;31.57;17.67
65384;BME280;51986;52.788;41.368;2023-05-19T03:43:31;99582.53;;;32.10;16.10
65384;BME280;51986;52.788;41.368;2023-05-19T03:46:02;99594.88;;;32.32;16.17
65384;BME280;51986;52.788;41.368;2023-05-19T03:48:47;99564.16;;;32.39;16.53
65384;BME280;51986;52.788;41.368;2023-05-19T03:51:17;99580.47;;;32.88;16.15
65384;BME280;51986;52.788;41.368;2023-05-19T03:53:45;99577.75;;;33.40;15.07
65384;BME280;51986;52.788;41.368;2023-05-19T03:56:13;99594.75;;;33.54;14.96
65384;BME280;51986;52.788;41.368;2023-05-19T03:58:40;99587.13;;;34.13;14.80
65384;BME280;51986;52.788;41.368;2023-05-19T04:01:07;99590.31;;;34.73;14.20
65384;BME280;51986;52.788;41.368;2023-05-19T04:03:34;99592.59;;;35.00;13.95
65384;BME280;51986;52.788;41.368;2023-05-19T04:06:02;99584.47;;;34.69;14.14
65384;BME280;51986;52.788;41.368;2023-05-19T04:08:30;99587.44;;;34.40;14.69
65384;BME280;51986;52.788;41.368;2023-05-19T04:10:57;99585.66;;;33.89;14.62
65384;BME280;51986;52.788;41.368;2023-05-19T04:13:24;99590.03;;;34.00;15.45
65384;BME280;51986;52.788;41.368;2023-05-19T04:15:51;99599.66;;;33.55;15.19
65384;BME280;51986;52.788;41.368;2023-05-19T04:18:19;99608.00;;;33.42;15.60
65384;BME280;51986;52.788;41.368;2023-05-19T04:20:46;99598.78;;;33.76;15.23
65384;BME280;51986;52.788;41.368;2023-05-19T04:23:13;99628.13;;;33.60;15.19
65384;BME280;51986;52.788;41.368;2023-05-19T04:25:40;99600.59;;;33.58;15.44
65384;BME280;51986;52.788;41.368;2023-05-19T04:28:07;99628.66;;;33.58;15.55
65384;BME280;51986;52.788;41.368;2023-05-19T04:30:34;99599.50;;;33.76;15.45
65384;BME280;51986;52.788;41.368;2023-05-19T04:33:01;99599.09;;;33.57;16.06
65384;BME280;51986;52.788;41.368;2023-05-19T04:35:28;99601.94;;;33.28;15.71
65384;BME280;51986;52.788;41.368;2023-05-19T04:37:57;99571.66;;;33.18;16.22
65384;BME280;51986;52.788;41.368;2023-05-19T04:40:28;99556.16;;;33.06;15.86
65384;BME280;51986;52.788;41.368;2023-05-19T04:42:55;99588.69;;;33.40;15.49
65384;BME280;51986;52.788;41.368;2023-05-19T04:45:23;99573.88;;;33.28;15.48
65384;BME280;51986;52.788;41.368;2023-05-19T04:47:53;99598.09;;;33.24;15.35
65384;BME280;51986;52.788;41.368;2023-05-19T04:50:20;99530.38;;;32.93;15.62
65384;BME280;51986;52.788;41.368;2023-05-19T04:52:47;99614.06;;;31.77;15.82
65384;BME280;51986;52.788;41.368;2023-05-19T04:55:14;99583.56;;;30.57;17.40
65384;BME280;51986;52.788;41.368;2023-05-19T04:57:41;99615.06;;;29.56;19.17
65384;BME280;51986;52.788;41.368;2023-05-19T05:00:09;99607.06;;;29.20;19.91
65384;BME280;51986;52.788;41.368;2023-05-19T05:02:44;99623.75;;;28.86;21.28
65384;BME280;51986;52.788;41.368;2023-05-19T05:05:12;99603.88;;;28.24;22.37
65384;BME280;51986;52.788;41.368;2023-05-19T05:07:39;99610.44;;;28.34;22.00
65384;BME280;51986;52.788;41.368;2023-05-19T05:10:07;99618.50;;;28.45;21.87
65384;BME280;51986;52.788;41.368;2023-05-19T05:12:34;99632.38;;;28.36;22.53
65384;BME280;51986;52.788;41.368;2023-05-19T05:15:02;99615.84;;;28.04;22.41
65384;BME280;51986;52.788;41.368;2023-05-19T05:17:29;99620.03;;;28.05;22.64
65384;BME280;51986;52.788;41.368;2023-05-19T05:19:57;99617.50;;;28.43;22.77
65384;BME280;51986;52.788;41.368;2023-05-19T05:22:24;99612.94;;;28.32;22.54
65384;BME280;51986;52.788;41.368;2023-05-19T05:24:52;99631.56;;;28.17;22.82
65384;BME280;51986;52.788;41.368;2023-05-19T05:27:19;99604.63;;;27.88;22.69
65384;BME280;51986;52.788;41.368;2023-05-19T05:29:46;99615.94;;;28.53;24.09
65384;BME280;51986;52.788;41.368;2023-05-19T05:32:14;99618.97;;;28.44;23.76
65384;BME280;51986;52.788;41.368;2023-05-19T05:34:42;99605.53;;;27.97;24.30
65384;BME280;51986;52.788;41.368;2023-05-19T05:37:10;99630.06;;;28.15;23.95
65384;BME280;51986;52.788;41.368;2023-05-19T05:39:41;99621.94;;;28.15;23.62
65384;BME280;51986;52.788;41.368;2023-05-19T05:42:09;99617.56;;;28.67;22.80
65384;BME280;51986;52.788;41.368;2023-05-19T05:44:38;99620.53;;;28.63;23.37
65384;BME280;51986;52.788;41.368;2023-05-19T05:47:06;99615.94;;;29.02;22.15
65384;BME280;51986;52.788;41.368;2023-05-19T05:49:34;99626.03;;;29.07;22.39
65384;BME280;51986;52.788;41.368;2023-05-19T05:52:02;99620.97;;;29.16;20.87
65384;BME280;51986;52.788;41.368;2023-05-19T05:54:39;99637.91;;;28.79;20.94
65384;BME280;51986;52.788;41.368;2023-05-19T05:57:07;99625.50;;;29.08;21.07
65384;BME280;51986;52.788;41.368;2023-05-19T05:59:34;99623.25;;;29.12;20.20
65384;BME280;51986;52.788;41.368;2023-05-19T06:02:01;99628.41;;;28.67;21.20
65384;BME280;51986;52.788;41.368;2023-05-19T06:04:30;99595.34;;;29.12;20.47
65384;BME280;51986;52.788;41.368;2023-05-19T06:06:57;99739.31;;;29.12;19.32
65384;BME280;51986;52.788;41.368;2023-05-19T06:09:24;99629.28;;;29.24;20.40
65384;BME280;51986;52.788;41.368;2023-05-19T06:11:52;99611.00;;;29.44;21.20
65384;BME280;51986;52.788;41.368;2023-05-19T06:14:19;99624.81;;;29.83;18.94
65384;BME280;51986;52.788;41.368;2023-05-19T06:17:08;99578.94;;;29.23;19.54
65384;BME280;51986;52.788;41.368;2023-05-19T06:19:36;99634.81;;;29.37;19.43
65384;BME280;51986;52.788;41.368;2023-05-19T06:22:03;99585.72;;;29.11;18.37
65384;BME280;51986;52.788;41.368;2023-05-19T06:24:30;99593.34;;;29.12;18.96
65384;BME280;51986;52.788;41.368;2023-05-19T06:26:57;99622.84;;;29.27;19.26
65384;BME280;51986;52.788;41.368;2023-05-19T06:29:24;99614.53;;;28.16;20.68
65384;BME280;51986;52.788;41.368;2023-05-19T06:31:56;99627.97;;;27.56;21.10
65384;BME280;51986;52.788;41.368;2023-05-19T06:34:24;99651.19;;;27.29;21.50
65384;BME280;51986;52.788;41.368;2023-05-19T06:36:51;99626.97;;;27.59;21.23
65384;BME280;51986;52.788;41.368;2023-05-19T06:39:19;99611.72;;;27.92;21.34
65384;BME280;51986;52.788;41.368;2023-05-19T06:41:46;99616.50;;;28.15;20.92
65384;BME280;51986;52.788;41.368;2023-05-19T06:44:33;99617.41;;;28.54;20.36
65384;BME280;51986;52.788;41.368;2023-05-19T06:47:00;99621.53;;;28.60;19.90
65384;BME280;51986;52.788;41.368;2023-05-19T06:49:27;99609.88;;;28.71;19.66
65384;BME280;51986;52.788;41.368;2023-05-19T06:51:54;99580.41;;;28.81;19.69
65384;BME280;51986;52.788;41.368;2023-05-19T06:54:21;99602.28;;;28.88;19.61
65384;BME280;51986;52.788;41.368;2023-05-19T06:56:48;99630.13;;;28.70;20.33
65384;BME280;51986;52.788;41.368;2023-05-19T06:59:15;99611.63;;;28.38;20.87
65384;BME280;51986;52.788;41.368;2023-05-19T07:01:43;99617.69;;;28.50;19.88
65384;BME280;51986;52.788;41.368;2023-05-19T07:04:11;99604.75;;;28.86;20.11
65384;BME280;51986;52.788;41.368;2023-05-19T07:06:39;99614.78;;;29.16;19.51
65384;BME280;51986;52.788;41.368;2023-05-19T07:09:07;99624.97;;;29.34;19.07
65384;BME280;51986;52.788;41.368;2023-05-19T07:11:36;99605.66;;;29.38;19.08
65384;BME280;51986;52.788;41.368;2023-05-19T07:14:04;99627.31;;;29.44;18.74
65384;BME280;51986;52.788;41.368;2023-05-19T07:16:31;99615.13;;;29.31;18.36
65384;BME280;51986;52.788;41.368;2023-05-19T07:18:58;99590.19;;;29.08;18.53
65384;BME280;51986;52.788;41.368;2023-05-19T07:21:25;99593.66;;;29.09;19.10
65384;BME280;51986;52.788;41.368;2023-05-19T07:23:52;99605.53;;;29.06;19.19
65384;BME280;51986;52.788;41.368;2023-05-19T07:26:19;99633.41;;;28.57;19.29
65384;BME280;51986;52.788;41.368;2023-05-19T07:28:46;99585.69;;;28.73;19.54
65384;BME280;51986;52.788;41.368;2023-05-19T07:31:13;99590.78;;;28.52;19.73
65384;BME280;51986;52.788;41.368;2023-05-19T07:33:40;99615.16;;;29.07;19.83
65384;BME280;51986;52.788;41.368;2023-05-19T07:36:07;99616.59;;;29.51;17.83
65384;BME280;51986;52.788;41.368;2023-05-19T07:38:34;99584.06;;;28.59;19.32
65384;BME280;51986;52.788;41.368;2023-05-19T07:41:02;99615.88;;;28.58;19.06
65384;BME280;51986;52.788;41.368;2023-05-19T07:43:29;99620.81;;;28.60;19.63
65384;BME280;51986;52.788;41.368;2023-05-19T07:45:56;99599.91;;;28.79;19.58
65384;BME280;51986;52.788;41.368;2023-05-19T07:48:23;99605.66;;;28.95;19.04
65384;BME280;51986;52.788;41.368;2023-05-19T07:50:51;99581.44;;;29.15;18.47
65384;BME280;51986;52.788;41.368;2023-05-19T07:53:19;99594.22;;;29.45;18.65
65384;BME280;51986;52.788;41.368;2023-05-19T07:55:46;99606.00;;;29.29;18.59
65384;BME280;51986;52.788;41.368;2023-05-19T07:58:14;99596.59;;;29.49;19.10
65384;BME280;51986;52.788;41.368;2023-05-19T08:00:41;99569.44;;;29.30;18.41
65384;BME280;51986;52.788;41.368;2023-05-19T08:03:08;99612.03;;;29.22;19.24
65384;BME280;51986;52.788;41.368;2023-05-19T08:05:36;99591.78;;;29.41;17.97
65384;BME280;51986;52.788;41.368;2023-05-19T08:08:22;99586.44;;;29.87;18.34
65384;BME280;51986;52.788;41.368;2023-05-19T08:10:50;99585.06;;;29.61;18.22
65384;BME280;51986;52.788;41.368;2023-05-19T08:13:17;99595.75;;;29.16;18.30
65384;BME280;51986;52.788;41.368;2023-05-19T08:15:44;99584.81;;;28.59;17.89
65384;BME280;51986;52.788;41.368;2023-05-19T08:18:11;99581.28;;;28.89;18.19
65384;BME280;51986;52.788;41.368;2023-05-19T08:20:38;99593.78;;;28.98;18.26
65384;BME280;51986;52.788;41.368;2023-05-19T08:23:05;99565.34;;;28.55;17.84
65384;BME280;51986;52.788;41.368;2023-05-19T08:25:32;99539.38;;;28.65;16.58
65384;BME280;51986;52.788;41.368;2023-05-19T08:27:59;99570.97;;;29.44;15.83
65384;BME280;51986;52.788;41.368;2023-05-19T08:30:26;99582.81;;;29.47;16.57
65384;BME280;51986;52.788;41.368;2023-05-19T08:32:54;99613.09;;;28.70;16.49
65384;BME280;51986;52.788;41.368;2023-05-19T08:35:21;99587.34;;;28.76;17.24
65384;BME280;51986;52.788;41.368;2023-05-19T08:37:48;99595.41;;;28.33;17.50
65384;BME280;51986;52.788;41.368;2023-05-19T08:40:16;99530.75;;;28.61;17.19
65384;BME280;51986;52.788;41.368;2023-05-19T08:42:44;99570.31;;;29.57;16.52
65384;BME280;51986;52.788;41.368;2023-05-19T08:45:12;99593.59;;;30.03;16.65
65384;BME280;51986;52.788;41.368;2023-05-19T08:47:44;99601.34;;;30.45;17.15
65384;BME280;51986;52.788;41.368;2023-05-19T08:50:16;99581.19;;;29.57;17.46
65384;BME280;51986;52.788;41.368;2023-05-19T08:57:49;99590.50;;;28.56;16.92
65384;BME280;51986;52.788;41.368;2023-05-19T09:00:17;99559.28;;;28.44;17.02
65384;BME280;51986;52.788;41.368;2023-05-19T09:02:47;99567.53;;;28.08;17.48
65384;BME280;51986;52.788;41.368;2023-05-19T09:05:27;99569.53;;;28.02;17.96
65384;BME280;51986;52.788;41.368;2023-05-19T09:07:54;99556.78;;;27.91;17.93
65384;BME280;51986;52.788;41.368;2023-05-19T09:10:21;99601.28;;;28.01;18.20
65384;BME280;51986;52.788;41.368;2023-05-19T09:12:48;99568.63;;;28.97;17.35
65384;BME280;51986;52.788;41.368;2023-05-19T09:15:16;99544.56;;;29.26;16.80
65384;BME280;51986;52.788;41.368;2023-05-19T09:17:46;99562.66;;;29.74;15.97
65384;BME280;51986;52.788;41.368;2023-05-19T09:20:15;99557.66;;;30.24;16.28
65384;BME280;51986;52.788;41.368;2023-05-19T09:22:43;99568.47;;;30.42;15.94
65384;BME280;51986;52.788;41.368;2023-05-19T09:25:18;99564.84;;;30.08;15.95
65384;BME280;51986;52.788;41.368;2023-05-19T09:27:46;99558.06;;;29.31;16.33
65384;BME280;51986;52.788;41.368;2023-05-19T09:30:14;99565.78;;;29.27;16.17
65384;BME280;51986;52.788;41.368;2023-05-19T09:32:41;99584.09;;;29.02;16.44
65384;BME280;51986;52.788;41.368;2023-05-19T09:35:10;99572.41;;;28.88;16.82
65384;BME280;51986;52.788;41.368;2023-05-19T09:37:39;99578.19;;;28.55;17.46
65384;BME280;51986;52.788;41.368;2023-05-19T09:40:09;99565.06;;;28.59;16.98
65384;BME280;51986;52.788;41.368;2023-05-19T09:42:40;99591.91;;;28.38;17.20
65384;BME280;51986;52.788;41.368;2023-05-19T09:45:07;99563.44;;;28.20;17.78
65384;BME280;51986;52.788;41.368;2023-05-19T09:47:36;99561.66;;;28.28;17.47
65384;BME280;51986;52.788;41.368;2023-05-19T09:50:08;99599.63;;;28.28;18.20
65384;BME280;51986;52.788;41.368;2023-05-19T09:52:38;99565.31;;;28.01;18.27
65384;BME280;51986;52.788;41.368;2023-05-19T09:55:09;99561.41;;;27.96;18.53
65384;BME280;51986;52.788;41.368;2023-05-19T09:57:37;99562.78;;;27.78;18.33
65384;BME280;51986;52.788;41.368;2023-05-19T10:00:09;99559.41;;;27.67;18.45
65384;BME280;51986;52.788;41.368;2023-05-19T10:02:40;99566.28;;;28.09;17.90
65384;BME280;51986;52.788;41.368;2023-05-19T10:05:10;99565.94;;;28.91;16.83
65384;BME280;51986;52.788;41.368;2023-05-19T10:07:39;99585.91;;;29.37;16.47
65384;BME280;51986;52.788;41.368;2023-05-19T10:10:11;99553.41;;;28.88;16.99
65384;BME280;51986;52.788;41.368;2023-05-19T10:12:39;99558.66;;;28.56;16.85
65384;BME280;51986;52.788;41.368;2023-05-19T10:15:08;99554.47;;;28.06;17.27
65384;BME280;51986;52.788;41.368;2023-05-19T10:17:40;99546.34;;;28.01;17.51
65384;BME280;51986;52.788;41.368;2023-05-19T10:20:15;99586.06;;;28.28;18.06
65384;BME280;51986;52.788;41.368;2023-05-19T10:22:44;99584.03;;;28.34;17.31
65384;BME280;51986;52.788;41.368;2023-05-19T10:25:12;99570.09;;;28.49;17.24
65384;BME280;51986;52.788;41.368;2023-05-19T10:27:41;99589.34;;;27.85;16.83
65384;BME280;51986;52.788;41.368;2023-05-19T10:30:13;99571.25;;;27.99;17.42
65384;BME280;51986;52.788;41.368;2023-05-19T10:32:43;99566.06;;;28.07;17.22
65384;BME280;51986;52.788;41.368;2023-05-19T10:35:23;99557.63;;;27.75;17.22
65384;BME280;51986;52.788;41.368;2023-05-19T10:38:19;99560.19;;;28.52;16.31
65384;BME280;51986;52.788;41.368;2023-05-19T10:41:06;99566.88;;;29.37;16.04
65384;BME280;51986;52.788;41.368;2023-05-19T10:46:05;99557.91;;;30.07;15.12
65384;BME280;51986;52.788;41.368;2023-05-19T10:48:33;99570.94;;;30.14;15.29
65384;BME280;51986;52.788;41.368;2023-05-19T10:51:01;99553.00;;;30.05;14.97
65384;BME280;51986;52.788;41.368;2023-05-19T10:53:32;99565.13;;;29.72;15.20
65384;BME280;51986;52.788;41.368;2023-05-19T10:56:00;99578.09;;;29.47;15.44
65384;BME280;51986;52.788;41.368;2023-05-19T10:58:49;99570.50;;;29.59;15.74
65384;BME280;51986;52.788;41.368;2023-05-19T11:01:17;99568.03;;;29.61;15.33
65384;BME280;51986;52.788;41.368;2023-05-19T11:03:54;99565.38;;;29.74;15.66
65384;BME280;51986;52.788;41.368;2023-05-19T11:06:28;99558.25;;;28.96;16.22
65384;BME280;51986;52.788;41.368;2023-05-19T11:11:50;99619.09;;;29.06;16.26
65384;BME280;51986;52.788;41.368;2023-05-19T11:14:20;99569.22;;;28.65;16.13
65384;BME280;51986;52.788;41.368;2023-05-19T11:16:48;99552.84;;;28.47;16.65
65384;BME280;51986;52.788;41.368;2023-05-19T11:19:25;99528.22;;;28.69;16.58
65384;BME280;51986;52.788;41.368;2023-05-19T11:21:53;99576.44;;;29.01;17.11
65384;BME280;51986;52.788;41.368;2023-05-19T11:24:44;99561.25;;;28.92;17.05
65384;BME280;51986;52.788;41.368;2023-05-19T11:27:32;99557.53;;;28.95;16.21
65384;BME280;51986;52.788;41.368;2023-05-19T11:30:01;99551.50;;;28.83;16.75
65384;BME280;51986;52.788;41.368;2023-05-19T11:32:29;99532.84;;;28.74;16.89
65384;BME280;51986;52.788;41.368;2023-05-19T11:34:56;99555.22;;;28.80;16.88
65384;BME280;51986;52.788;41.368;2023-05-19T11:37:24;99537.97;;;28.78;16.85
65384;BME280;51986;52.788;41.368;2023-05-19T11:39:51;99566.72;;;28.68;16.42
65384;BME280;51986;52.788;41.368;2023-05-19T11:42:19;99555.13;;;28.67;16.61
65384;BME280;51986;52.788;41.368;2023-05-19T11:44:48;99584.69;;;28.71;17.05
65384;BME280;51986;52.788;41.368;2023-05-19T11:47:15;99555.81;;;28.73;16.28
65384;BME280;51986;52.788;41.368;2023-05-19T11:50:03;99536.88;;;28.86;16.78
65384;BME280;51986;52.788;41.368;2023-05-19T11:52:30;99573.31;;;28.72;16.83
65384;BME280;51986;52.788;41.368;2023-05-19T11:55:00;99548.47;;;28.62;17.44
65384;BME280;51986;52.788;41.368;2023-05-19T11:57:27;99558.75;;;28.51;17.92
65384;BME280;51986;52.788;41.368;2023-05-19T11:59:55;99565.34;;;28.55;18.78
65384;BME280;51986;52.788;41.368;2023-05-19T12:02:23;99551.53;;;28.53;18.25
65384;BME280;51986;52.788;41.368;2023-05-19T12:04:51;99565.34;;;28.55;18.32
65384;BME280;51986;52.788;41.368;2023-05-19T12:07:22;99583.69;;;28.49;17.86
65384;BME280;51986;52.788;41.368;2023-05-19T12:09:50;99535.31;;;28.48;18.55
65384;BME280;51986;52.788;41.368;2023-05-19T12:12:19;99547.75;;;28.37;18.32
65384;BME280;51986;52.788;41.368;2023-05-19T12:14:48;99563.50;;;28.45;18.23
65384;BME280;51986;52.788;41.368;2023-05-19T12:17:19;99545.28;;;28.39;17.90
65384;BME280;51986;52.788;41.368;2023-05-19T12:19:47;99581.84;;;28.33;18.58
65384;BME280;51986;52.788;41.368;2023-05-19T12:22:16;99522.41;;;28.35;18.17
65384;BME280;51986;52.788;41.368;2023-05-19T12:24:45;99534.53;;;28.28;18.40
65384;BME280;51986;52.788;41.368;2023-05-19T12:27:22;99568.13;;;28.50;18.08
65384;BME280;51986;52.788;41.368;2023-05-19T12:29:50;99546.25;;;28.42;18.80
65384;BME280;51986;52.788;41.368;2023-05-19T12:32:17;99551.28;;;28.32;18.61
65384;BME280;51986;52.788;41.368;2023-05-19T12:34:44;99560.31;;;28.40;18.82
65384;BME280;51986;52.788;41.368;2023-05-19T12:37:11;99533.19;;;28.40;18.74
65384;BME280;51986;52.788;41.368;2023-05-19T12:39:40;99546.13;;;28.97;18.34
65384;BME280;51986;52.788;41.368;2023-05-19T12:42:08;99539.03;;;28.94;16.79
65384;BME280;51986;52.788;41.368;2023-05-19T12:44:47;99558.28;;;28.71;16.29
65384;BME280;51986;52.788;41.368;2023-05-19T12:47:15;99539.00;;;28.50;16.60
65384;BME280;51986;52.788;41.368;2023-05-19T12:52:27;99551.13;;;28.49;16.39
65384;BME280;51986;52.788;41.368;2023-05-19T12:54:59;99545.69;;;28.49;17.04
65384;BME280;51986;52.788;41.368;2023-05-19T12:57:26;99537.44;;;28.06;17.20
65384;BME280;51986;52.788;41.368;2023-05-19T12:59:59;99543.50;;;27.87;18.09
65384;BME280;51986;52.788;41.368;2023-05-19T13:02:26;99523.28;;;27.88;18.39
65384;BME280;51986;52.788;41.368;2023-05-19T13:04:54;99536.06;;;27.63;18.78
65384;BME280;51986;52.788;41.368;2023-05-19T13:07:23;99557.44;;;27.67;19.05
65384;BME280;51986;52.788;41.368;2023-05-19T13:09:53;99527.94;;;27.58;18.92
65384;BME280;51986;52.788;41.368;2023-05-19T13:12:20;99531.53;;;27.72;18.87
65384;BME280;51986;52.788;41.368;2023-05-19T13:14:47;99550.81;;;27.62;18.93
65384;BME280;51986;52.788;41.368;2023-05-19T13:17:14;99541.81;;;27.43;19.32
65384;BME280;51986;52.788;41.368;2023-05-19T13:19:41;99549.47;;;27.45;19.54
65384;BME280;51986;52.788;41.368;2023-05-19T13:22:08;99542.84;;;27.34;19.57
65384;BME280;51986;52.788;41.368;2023-05-19T13:24:35;99539.94;;;27.27;19.34
65384;BME280;51986;52.788;41.368;2023-05-19T13:27:04;99548.50;;;27.36;19.47